createdAt,value
2023-11-23T00:00:55.171Z,-0.59
2023-11-23T00:03:03.640Z,-0.58
2023-11-23T00:05:11.181Z,-0.61
2023-11-23T00:07:19.789Z,-0.68
2023-11-23T00:09:30.860Z,-0.74
2023-11-23T00:11:36.477Z,-0.71
2023-11-23T00:13:44.949Z,-0.76
2023-11-23T00:15:53.231Z,-0.83
2023-11-23T00:18:02.118Z,-0.87
2023-11-23T00:20:12.200Z,-0.87
2023-11-23T00:22:39.598Z,-0.85
2023-11-23T00:24:51.209Z,-0.85
2023-11-23T00:26:59.692Z,-0.83
2023-11-23T00:29:06.501Z,-0.89
2023-11-23T00:31:14.860Z,-0.80
2023-11-23T00:33:23.338Z,-0.90
2023-11-23T00:35:31.790Z,-0.94
2023-11-23T00:37:40.210Z,-0.83
2023-11-23T00:39:51.602Z,-0.79
2023-11-23T00:42:00.076Z,-0.76
2023-11-23T00:44:09.392Z,-0.74
2023-11-23T00:46:18.123Z,-0.76
2023-11-23T00:48:23.886Z,-0.63
2023-11-23T00:50:33.656Z,-0.68
2023-11-23T00:52:42.299Z,-0.73
2023-11-23T00:54:50.493Z,-0.74
2023-11-23T00:56:58.929Z,-0.77
2023-11-23T00:59:07.282Z,-0.76
2023-11-23T01:01:16.083Z,-0.55
2023-11-23T01:03:26.261Z,-0.61
2023-11-23T01:05:36.111Z,-0.53
2023-11-23T01:07:41.932Z,-0.56
2023-11-23T01:09:53.472Z,-0.54
2023-11-23T01:12:00.054Z,-0.42
2023-11-23T01:14:09.665Z,-0.42
2023-11-23T01:16:18.192Z,-0.32
2023-11-23T01:18:26.701Z,-0.31
2023-11-23T01:20:35.764Z,-0.30
2023-11-23T01:22:44.168Z,-0.26
2023-11-23T01:24:52.551Z,-0.37
2023-11-23T01:27:00.852Z,-0.37
2023-11-23T01:29:10.098Z,-0.34
2023-11-23T01:31:18.999Z,-0.36
2023-11-23T01:33:27.501Z,-0.24
2023-11-23T01:35:35.909Z,-0.21
2023-11-23T01:37:44.835Z,-0.23
2023-11-23T01:39:55.642Z,-0.20
2023-11-23T01:42:04.723Z,-0.18
2023-11-23T01:44:13.611Z,-0.18
2023-11-23T01:46:22.141Z,-0.15
2023-11-23T01:48:32.486Z,0.01
2023-11-23T01:50:44.393Z,0.01
2023-11-23T01:52:53.057Z,0.08
2023-11-23T01:55:04.097Z,0.02
2023-11-23T01:57:13.115Z,0.10
2023-11-23T01:59:18.668Z,0.12
2023-11-23T02:01:27.951Z,0.10
2023-11-23T02:03:36.967Z,0.03
2023-11-23T02:05:46.133Z,-0.12
2023-11-23T02:07:54.708Z,-0.15
2023-11-23T02:10:06.505Z,-0.17
2023-11-23T02:12:15.002Z,-0.09
2023-11-23T02:14:23.205Z,-0.28
2023-11-23T02:16:31.694Z,-0.31
2023-11-23T02:18:41.399Z,-0.18
2023-11-23T02:20:50.849Z,-0.27
2023-11-23T02:23:01.410Z,-0.17
2023-11-23T02:25:14.409Z,-0.22
2023-11-23T02:27:22.601Z,-0.36
2023-11-23T02:29:30.987Z,-0.42
2023-11-23T02:31:39.369Z,-0.59
2023-11-23T02:33:47.586Z,-0.59
2023-11-23T02:35:55.885Z,-0.68
2023-11-23T02:38:01.783Z,-0.70
2023-11-23T02:40:14.627Z,-0.70
2023-11-23T02:42:20.617Z,-0.63
2023-11-23T02:44:29.009Z,-0.68
2023-11-23T02:46:37.455Z,-0.79
2023-11-23T02:48:45.785Z,-0.85
2023-11-23T02:50:54.700Z,-0.89
2023-11-23T02:53:03.525Z,-0.87
2023-11-23T02:55:15.347Z,-0.94
2023-11-23T02:57:23.904Z,-0.98
2023-11-23T02:59:32.099Z,-0.96
2023-11-23T03:01:41.233Z,-0.88
2023-11-23T03:03:46.899Z,-0.89
2023-11-23T03:05:55.474Z,-0.88
2023-11-23T03:08:04.603Z,-0.88
2023-11-23T03:10:17.366Z,-0.91
2023-11-23T03:12:25.698Z,-0.83
2023-11-23T03:14:31.644Z,-0.92
2023-11-23T03:16:39.854Z,-0.92
2023-11-23T03:18:49.434Z,-0.88
2023-11-23T03:20:57.913Z,-0.86
2023-11-23T03:23:06.439Z,-0.89
2023-11-23T03:25:17.803Z,-0.96
2023-11-23T03:27:26.628Z,-1.01
2023-11-23T03:29:35.137Z,-0.99
2023-11-23T03:31:43.547Z,-0.92
2023-11-23T03:33:51.822Z,-0.93
2023-11-23T03:36:00.286Z,-0.99
2023-11-23T03:38:09.109Z,-0.92
2023-11-23T03:40:17.738Z,-1.01
2023-11-23T03:42:26.710Z,-1.14
2023-11-23T03:44:35.096Z,-1.15
2023-11-23T03:46:43.488Z,-1.13
2023-11-23T03:48:51.991Z,-1.16
2023-11-23T03:51:00.468Z,-1.11
2023-11-23T03:53:08.858Z,-1.12
2023-11-23T03:55:20.264Z,-1.12
2023-11-23T03:57:28.858Z,-1.14
2023-11-23T03:59:37.870Z,-1.15
2023-11-23T04:01:50.905Z,-1.00
2023-11-23T04:03:59.228Z,-0.98
2023-11-23T04:06:08.072Z,-0.95
2023-11-23T04:08:16.756Z,-0.88
2023-11-23T04:10:27.825Z,-0.99
2023-11-23T04:12:36.621Z,-0.96
2023-11-23T04:14:45.069Z,-1.06
2023-11-23T04:16:53.892Z,-1.01
2023-11-23T04:19:02.324Z,-1.06
2023-11-23T04:21:08.263Z,-0.99
2023-11-23T04:23:16.726Z,-1.11
2023-11-23T04:25:27.567Z,-1.17
2023-11-23T04:27:35.813Z,-1.10
2023-11-23T04:29:44.092Z,-1.11
2023-11-23T04:31:52.371Z,-1.14
2023-11-23T04:34:00.966Z,-1.19
2023-11-23T04:36:09.677Z,-1.18
2023-11-23T04:38:18.271Z,-1.25
2023-11-23T04:40:29.206Z,-1.15
2023-11-23T04:42:35.008Z,-1.22
2023-11-23T04:44:43.503Z,-1.21
2023-11-23T04:46:52.291Z,-1.21
2023-11-23T04:49:00.645Z,-1.26
2023-11-23T04:51:09.086Z,-1.28
2023-11-23T04:53:19.262Z,-1.33
2023-11-23T04:55:30.714Z,-1.43
2023-11-23T04:57:38.931Z,-1.43
2023-11-23T04:59:47.418Z,-1.38
2023-11-23T05:01:56.152Z,-1.41
2023-11-23T05:04:06.360Z,-1.27
2023-11-23T05:06:16.698Z,-1.30
2023-11-23T05:08:25.091Z,-1.40
2023-11-23T05:10:36.026Z,-1.37
2023-11-23T05:13:13.954Z,-1.37
2023-11-23T05:15:41.756Z,-1.41
2023-11-23T05:17:57.410Z,-1.23
2023-11-23T05:20:06.164Z,-1.12
2023-11-23T05:22:14.433Z,-1.09
2023-11-23T05:24:22.893Z,-1.21
2023-11-23T05:26:33.738Z,-1.14
2023-11-23T05:28:42.013Z,-1.00
2023-11-23T05:30:50.742Z,-0.99
2023-11-23T05:33:01.917Z,-1.05
2023-11-23T05:35:11.992Z,-1.20
2023-11-23T05:37:20.192Z,-1.23
2023-11-23T05:39:28.913Z,-1.27
2023-11-23T05:41:40.056Z,-1.30
2023-11-23T05:43:48.664Z,-1.30
2023-11-23T05:45:57.997Z,-1.32
2023-11-23T05:48:07.657Z,-1.28
2023-11-23T05:50:16.585Z,-1.26
2023-11-23T05:52:25.009Z,-1.26
2023-11-23T05:54:33.276Z,-1.18
2023-11-23T05:56:45.467Z,-1.23
2023-11-23T05:58:55.255Z,-1.23
2023-11-23T06:01:09.893Z,-1.16
2023-11-23T06:03:25.039Z,-1.19
2023-11-23T06:05:33.743Z,-1.27
2023-11-23T06:07:41.365Z,-1.29
2023-11-23T06:09:52.595Z,-1.23
2023-11-23T06:12:04.112Z,-1.19
2023-11-23T06:14:12.441Z,-1.22
2023-11-23T06:16:20.842Z,-1.23
2023-11-23T06:18:29.736Z,-1.31
2023-11-23T06:20:38.393Z,-1.33
2023-11-23T06:22:46.719Z,-1.19
2023-11-23T06:24:52.927Z,-1.23
2023-11-23T06:27:04.380Z,-1.08
2023-11-23T06:29:13.005Z,-1.22
2023-11-23T06:31:21.840Z,-1.21
2023-11-23T06:33:31.135Z,-1.30
2023-11-23T06:35:39.425Z,-1.38
2023-11-23T06:37:49.136Z,-1.41
2023-11-23T06:39:58.551Z,-1.39
2023-11-23T06:42:10.020Z,-1.44
2023-11-23T06:44:18.481Z,-1.51
2023-11-23T06:46:26.756Z,-1.49
2023-11-23T06:48:36.714Z,-1.36
2023-11-23T06:50:45.553Z,-1.30
2023-11-23T06:52:53.910Z,-1.26
2023-11-23T06:55:02.743Z,-1.23
2023-11-23T06:57:13.701Z,-1.08
2023-11-23T06:59:22.696Z,-1.13
2023-11-23T07:01:31.267Z,-1.05
2023-11-23T07:03:40.245Z,-1.02
2023-11-23T07:05:48.949Z,-1.09
2023-11-23T07:07:58.468Z,-1.16
2023-11-23T07:10:07.739Z,-1.26
2023-11-23T07:12:18.612Z,-1.18
2023-11-23T07:14:26.960Z,-1.26
2023-11-23T07:16:35.424Z,-1.19
2023-11-23T07:18:41.203Z,-1.12
2023-11-23T07:20:51.965Z,-1.11
2023-11-23T07:23:00.260Z,-1.12
2023-11-23T07:25:10.942Z,-1.18
2023-11-23T07:27:22.418Z,-1.22
2023-11-23T07:29:33.143Z,-1.14
2023-11-23T07:31:42.948Z,-1.14
2023-11-23T07:33:52.931Z,-1.07
2023-11-23T07:36:01.303Z,-1.03
2023-11-23T07:38:09.557Z,-0.90
2023-11-23T07:40:18.390Z,-0.93
2023-11-23T07:42:30.293Z,-0.92
2023-11-23T07:44:38.910Z,-0.85
2023-11-23T07:46:49.250Z,-0.92
2023-11-23T07:48:57.623Z,-0.82
2023-11-23T07:51:03.523Z,-0.90
2023-11-23T07:53:11.820Z,-0.79
2023-11-23T07:55:20.480Z,-0.80
2023-11-23T07:57:31.700Z,-0.63
2023-11-23T07:59:40.405Z,-0.58
2023-11-23T08:01:48.878Z,-0.30
2023-11-23T08:03:58.026Z,-0.20
2023-11-23T08:06:06.698Z,-0.10
2023-11-23T08:08:15.505Z,-0.09
2023-11-23T08:10:23.987Z,0.01
2023-11-23T08:12:35.028Z,0.08
2023-11-23T08:14:43.415Z,0.21
2023-11-23T08:16:51.943Z,0.04
2023-11-23T08:19:00.323Z,-0.20
2023-11-23T08:21:10.512Z,-0.28
2023-11-23T08:23:19.127Z,-0.21
2023-11-23T08:25:27.860Z,0.10
2023-11-23T08:27:39.542Z,0.27
2023-11-23T08:29:48.646Z,0.29
2023-11-23T08:31:57.015Z,0.34
2023-11-23T08:34:05.560Z,0.55
2023-11-23T08:36:15.396Z,0.66
2023-11-23T08:38:24.597Z,0.72
2023-11-23T08:40:33.524Z,0.93
2023-11-23T08:42:44.473Z,1.14
2023-11-23T08:44:52.879Z,1.17
2023-11-23T08:47:01.966Z,1.16
2023-11-23T08:49:10.356Z,1.33
2023-11-23T08:51:18.972Z,1.71
2023-11-23T08:53:25.645Z,1.89
2023-11-23T08:55:34.573Z,2.06
2023-11-23T08:57:47.453Z,1.99
2023-11-23T08:59:55.891Z,2.03
2023-11-23T09:02:17.015Z,1.82
2023-11-23T09:04:36.736Z,2.23
2023-11-23T09:06:51.567Z,2.53
2023-11-23T09:09:02.043Z,2.41
2023-11-23T09:11:10.714Z,2.60
2023-11-23T09:13:21.896Z,2.84
2023-11-23T09:15:30.329Z,3.06
2023-11-23T09:17:38.836Z,2.88
2023-11-23T09:19:47.534Z,2.81
2023-11-23T09:21:56.439Z,2.77
2023-11-23T09:24:06.941Z,2.77
2023-11-23T09:26:15.425Z,2.72
2023-11-23T09:28:24.436Z,3.08
2023-11-23T09:30:34.244Z,3.44
2023-11-23T09:32:43.155Z,3.70
2023-11-23T09:34:51.703Z,3.54
2023-11-23T09:37:00.116Z,3.59
2023-11-23T09:39:11.121Z,3.70
2023-11-23T09:41:21.994Z,3.83
2023-11-23T09:43:31.216Z,3.82
2023-11-23T09:45:40.616Z,3.84
2023-11-23T09:47:52.030Z,3.94
2023-11-23T09:50:00.905Z,4.00
2023-11-23T09:52:10.804Z,4.09
2023-11-23T09:54:23.279Z,3.93
2023-11-23T09:56:32.732Z,3.88
2023-11-23T09:58:44.012Z,3.62
2023-11-23T10:00:53.717Z,3.73
2023-11-23T10:03:02.800Z,3.71
2023-11-23T10:05:12.742Z,3.77
2023-11-23T10:07:23.731Z,3.87
2023-11-23T10:09:37.037Z,3.93
2023-11-23T10:11:42.866Z,4.14
2023-11-23T10:13:53.781Z,4.21
2023-11-23T10:16:02.210Z,4.05
2023-11-23T10:18:11.114Z,4.02
2023-11-23T10:20:19.648Z,4.12
2023-11-23T10:22:28.600Z,3.96
2023-11-23T10:24:37.304Z,4.16
2023-11-23T10:26:45.639Z,4.44
2023-11-23T10:28:57.795Z,4.61
2023-11-23T10:31:07.019Z,4.39
2023-11-23T10:33:16.799Z,4.60
2023-11-23T10:35:26.214Z,4.72
2023-11-23T10:37:37.125Z,4.94
2023-11-23T10:39:45.928Z,5.11
2023-11-23T10:41:57.766Z,5.23
2023-11-23T10:44:12.007Z,5.34
2023-11-23T10:46:25.098Z,5.71
2023-11-23T10:48:37.202Z,5.81
2023-11-23T10:50:46.763Z,6.10
2023-11-23T10:53:00.902Z,6.16
2023-11-23T10:55:11.802Z,6.11
2023-11-23T10:57:22.909Z,5.21
2023-11-23T10:59:36.984Z,5.16
2023-11-23T11:01:46.702Z,5.38
2023-11-23T11:03:55.225Z,5.78
2023-11-23T11:06:08.779Z,5.43
2023-11-23T11:08:21.835Z,5.33
2023-11-23T11:10:37.989Z,5.15
2023-11-23T11:12:51.330Z,4.79
2023-11-23T11:15:07.988Z,4.86
2023-11-23T11:17:16.293Z,5.26
2023-11-23T11:19:27.139Z,5.29
2023-11-23T11:21:46.562Z,5.40
2023-11-23T11:23:56.262Z,5.16
2023-11-23T11:26:08.111Z,5.31
2023-11-23T11:28:18.106Z,5.39
2023-11-23T11:30:37.637Z,5.13
2023-11-23T11:32:47.269Z,5.31
2023-11-23T11:35:05.290Z,5.12
2023-11-23T11:37:13.603Z,5.32
2023-11-23T11:39:22.614Z,5.69
2023-11-23T11:41:36.091Z,5.72
2023-11-23T11:43:45.841Z,5.58
2023-11-23T11:45:57.086Z,5.94
2023-11-23T11:48:05.659Z,5.74
2023-11-23T11:50:15.933Z,5.54
2023-11-23T11:57:55.586Z,5.94
2023-11-23T12:12:15.045Z,6.56
2023-11-23T12:14:53.913Z,6.79
2023-11-23T12:19:58.395Z,6.69
2023-11-23T12:22:21.286Z,6.80
2023-11-23T12:24:36.379Z,6.85
2023-11-23T12:26:56.230Z,6.89
2023-11-23T12:32:38.627Z,7.06
2023-11-23T12:39:07.047Z,7.56
2023-11-23T12:41:42.713Z,7.42
2023-11-23T12:43:58.293Z,7.63
2023-11-23T12:46:07.172Z,7.61
2023-11-23T12:48:18.530Z,7.59
2023-11-23T12:50:27.537Z,7.68
2023-11-23T12:52:36.680Z,7.79
2023-11-23T12:54:45.145Z,7.78
2023-11-23T12:56:55.689Z,7.84
2023-11-23T12:59:04.365Z,7.69
2023-11-23T13:01:36.034Z,7.59
2023-11-23T13:03:47.312Z,7.43
2023-11-23T13:05:56.018Z,7.31
2023-11-23T13:08:05.677Z,7.37
2023-11-23T13:10:17.288Z,7.42
2023-11-23T13:12:26.015Z,7.44
2023-11-23T13:14:34.801Z,7.32
2023-11-23T13:16:43.774Z,7.39
2023-11-23T13:19:11.014Z,7.41
2023-11-23T13:21:27.159Z,7.36
2023-11-23T13:23:38.949Z,7.49
2023-11-23T13:25:47.697Z,7.38
2023-11-23T13:27:57.766Z,7.42
2023-11-23T13:30:06.290Z,7.37
2023-11-23T13:32:15.221Z,7.28
2023-11-23T13:34:27.827Z,7.26
2023-11-23T13:36:37.125Z,7.23
2023-11-23T13:38:45.664Z,7.20
2023-11-23T13:40:55.368Z,7.10
2023-11-23T13:43:03.949Z,7.17
2023-11-23T13:45:17.118Z,7.41
2023-11-23T13:47:29.749Z,7.32
2023-11-23T13:49:41.113Z,7.38
2023-11-23T13:51:46.943Z,7.37
2023-11-23T13:53:55.442Z,7.47
2023-11-23T13:56:03.772Z,7.35
2023-11-23T13:58:12.580Z,7.38
2023-11-23T14:00:24.218Z,7.46
2023-11-23T14:02:37.676Z,7.51
2023-11-23T14:04:46.159Z,7.54
2023-11-23T14:06:54.523Z,7.52
2023-11-23T14:09:05.513Z,7.40
2023-11-23T14:11:14.419Z,7.38
2023-11-23T14:13:22.849Z,7.19
2023-11-23T14:15:28.878Z,7.17
2023-11-23T14:17:37.187Z,7.11
2023-11-23T14:19:45.952Z,7.22
2023-11-23T14:21:58.466Z,7.12
2023-11-23T14:24:08.081Z,7.18
2023-11-23T14:26:16.790Z,7.18
2023-11-23T14:28:26.924Z,7.02
2023-11-23T14:30:38.278Z,7.14
2023-11-23T14:32:48.234Z,6.99
2023-11-23T14:34:56.579Z,7.09
2023-11-23T14:37:07.896Z,7.09
2023-11-23T14:39:17.600Z,7.10
2023-11-23T14:41:25.876Z,7.09
2023-11-23T14:43:34.414Z,7.02
2023-11-23T14:45:42.807Z,6.94
2023-11-23T14:47:51.402Z,6.82
2023-11-23T14:49:57.236Z,6.93
2023-11-23T14:52:08.492Z,6.83
2023-11-23T14:54:22.063Z,6.84
2023-11-23T14:56:37.441Z,6.74
2023-11-23T14:58:46.708Z,6.68
2023-11-23T15:01:33.656Z,6.80
2023-11-23T15:03:42.519Z,6.73
2023-11-23T15:05:51.365Z,6.64
2023-11-23T15:08:04.899Z,6.59
2023-11-23T15:10:36.042Z,6.73
2023-11-23T15:12:55.197Z,6.68
2023-11-23T15:17:59.279Z,6.61
2023-11-23T15:20:09.164Z,6.59
2023-11-23T15:22:17.853Z,6.64
2023-11-23T15:40:02.554Z,6.21
2023-11-23T15:42:38.140Z,6.20
2023-11-23T15:44:54.717Z,6.35
2023-11-23T15:47:20.809Z,6.32
2023-11-23T15:49:34.750Z,6.24
2023-11-23T15:51:44.754Z,6.32
2023-11-23T15:53:53.718Z,6.45
2023-11-23T15:56:02.138Z,6.47
2023-11-23T15:58:13.365Z,6.33
2023-11-23T16:00:25.745Z,6.31
2023-11-23T16:02:34.275Z,6.31
2023-11-23T16:04:43.648Z,6.27
2023-11-23T16:06:53.741Z,6.19
2023-11-23T16:09:03.698Z,6.22
2023-11-23T16:11:12.269Z,6.18
2023-11-23T16:13:23.891Z,6.14
2023-11-23T16:15:32.322Z,6.09
2023-11-23T16:17:41.705Z,6.17
2023-11-23T16:19:50.219Z,6.10
2023-11-23T16:21:58.920Z,6.01
2023-11-23T16:24:07.799Z,6.12
2023-11-23T16:26:16.158Z,6.14
2023-11-23T16:28:27.452Z,6.17
2023-11-23T16:30:35.877Z,6.09
2023-11-23T16:32:44.458Z,6.07
2023-11-23T16:34:52.778Z,6.13
2023-11-23T16:37:01.282Z,6.10
2023-11-23T16:39:16.646Z,6.16
2023-11-23T16:41:25.500Z,6.09
2023-11-23T16:43:36.512Z,6.21
2023-11-23T16:45:45.046Z,6.16
2023-11-23T16:47:54.661Z,6.23
2023-11-23T16:50:03.622Z,6.23
2023-11-23T16:52:12.043Z,6.21
2023-11-23T16:54:21.062Z,6.31
2023-11-23T16:59:30.372Z,6.26
2023-11-23T17:19:32.989Z,6.14
2023-11-23T17:29:42.763Z,6.04
2023-11-23T17:31:56.373Z,6.05
2023-11-23T17:34:05.175Z,6.06
2023-11-23T17:36:16.733Z,6.05
2023-11-23T17:38:25.755Z,6.14
2023-11-23T17:40:36.312Z,6.22
2023-11-23T17:42:47.606Z,6.15
2023-11-23T17:44:56.520Z,6.23
2023-11-23T17:47:07.739Z,6.28
2023-11-23T17:49:17.997Z,6.21
2023-11-23T17:51:45.109Z,6.17
2023-11-23T17:54:30.673Z,6.28
2023-11-23T18:02:56.423Z,6.39
2023-11-23T18:05:13.463Z,6.34
2023-11-23T18:07:21.827Z,6.23
2023-11-23T18:09:33.307Z,6.35
2023-11-23T18:11:42.166Z,6.24
2023-11-23T18:13:50.996Z,6.13
2023-11-23T18:15:59.757Z,6.15
2023-11-23T18:18:15.329Z,6.15
2023-11-23T18:20:30.762Z,6.25
2023-11-23T18:22:40.213Z,6.17
2023-11-23T18:24:51.762Z,6.22
2023-11-23T18:27:03.488Z,6.23
2023-11-23T18:41:52.523Z,6.24
2023-11-23T18:47:47.211Z,6.28
2023-11-23T18:50:10.916Z,6.38
2023-11-23T18:52:24.581Z,6.42
2023-11-23T18:54:33.153Z,6.43
2023-11-23T18:56:41.456Z,6.33
2023-11-23T18:58:50.878Z,6.24
2023-11-23T19:00:58.457Z,6.33
2023-11-23T19:03:10.173Z,6.35
2023-11-23T19:05:19.994Z,6.30
2023-11-23T19:07:28.093Z,6.30
2023-11-23T19:09:36.601Z,6.44
2023-11-23T19:11:44.572Z,6.41
2023-11-23T19:13:56.883Z,6.45
2023-11-23T19:16:07.880Z,6.41
2023-11-23T19:18:20.284Z,6.44
2023-11-23T19:20:29.587Z,6.55
2023-11-23T19:22:39.529Z,6.40
2023-11-23T19:24:49.186Z,6.44
2023-11-23T19:26:57.899Z,6.43
2023-11-23T19:29:07.713Z,6.53
2023-11-23T19:31:14.215Z,6.60
2023-11-23T19:33:25.486Z,6.46
2023-11-23T19:35:36.250Z,6.40
2023-11-23T19:37:42.235Z,6.40
2023-11-23T19:39:51.651Z,6.39
2023-11-23T19:42:02.293Z,6.42
2023-11-23T19:44:12.212Z,6.44
2023-11-23T19:46:21.565Z,6.42
2023-11-23T19:48:33.069Z,6.40
2023-11-23T19:50:41.722Z,6.48
2023-11-23T19:52:50.478Z,6.35
2023-11-23T19:54:56.846Z,6.49
2023-11-23T19:57:06.620Z,6.39
2023-11-23T19:59:14.600Z,6.40
2023-11-23T20:01:22.698Z,6.44
2023-11-23T20:03:33.891Z,6.51
2023-11-23T20:05:42.358Z,6.43
2023-11-23T20:07:50.572Z,6.48
2023-11-23T20:09:59.666Z,6.47
2023-11-23T20:12:08.805Z,6.38
2023-11-23T20:14:17.080Z,6.43
2023-11-23T20:16:31.351Z,6.49
2023-11-23T20:18:45.806Z,6.46
2023-11-23T20:20:54.194Z,6.42
2023-11-23T20:28:17.963Z,6.39
2023-11-23T20:30:28.329Z,6.45
2023-11-23T20:32:38.796Z,6.52
2023-11-23T20:34:49.612Z,6.50
2023-11-23T20:36:57.992Z,6.51
2023-11-23T20:39:06.570Z,6.41
2023-11-23T20:41:17.406Z,6.53
2023-11-23T20:43:29.471Z,6.59
2023-11-23T20:45:39.669Z,6.56
2023-11-23T20:47:48.704Z,6.57
2023-11-23T20:50:00.274Z,6.51
2023-11-23T20:52:10.918Z,6.44
2023-11-23T20:54:23.703Z,6.47
2023-11-23T20:56:36.483Z,6.46
2023-11-23T20:58:48.395Z,6.44
2023-11-23T21:00:58.405Z,6.43
2023-11-23T21:03:07.757Z,6.43
2023-11-23T21:05:23.286Z,6.57
2023-11-23T21:07:33.587Z,6.43
2023-11-23T21:09:45.661Z,6.45
2023-11-23T21:11:57.077Z,6.41
2023-11-23T21:14:09.117Z,6.54
2023-11-23T21:16:19.547Z,6.60
2023-11-23T21:18:28.068Z,6.56
2023-11-23T21:20:43.235Z,6.63
2023-11-23T21:22:52.243Z,6.62
2023-11-23T21:25:01.481Z,6.64
2023-11-23T21:27:10.072Z,6.69
2023-11-23T21:29:19.947Z,6.71
2023-11-23T21:31:28.812Z,6.68
2023-11-23T21:33:38.322Z,6.76
2023-11-23T21:35:49.308Z,6.70
2023-11-23T21:37:57.302Z,6.69
2023-11-23T21:40:02.814Z,6.79
2023-11-23T21:42:11.079Z,6.82
2023-11-23T21:44:19.444Z,6.82
2023-11-23T21:46:27.758Z,6.75
2023-11-23T21:48:36.253Z,6.73
2023-11-23T21:50:44.348Z,6.82
2023-11-23T21:52:55.433Z,6.75
2023-11-23T21:55:04.711Z,6.80
2023-11-23T21:57:13.203Z,6.73
2023-11-23T21:59:18.522Z,6.74
2023-11-23T22:01:27.078Z,6.72
2023-11-23T22:03:35.175Z,6.69
2023-11-23T22:05:43.530Z,6.70
2023-11-23T22:07:54.888Z,6.72
2023-11-23T22:10:05.456Z,6.64
2023-11-23T22:12:13.643Z,6.74
2023-11-23T22:14:21.840Z,6.71
2023-11-23T22:16:29.984Z,6.73
2023-11-23T22:18:38.685Z,6.77
2023-11-23T22:20:47.346Z,6.71
2023-11-23T22:23:00.740Z,6.70
2023-11-23T22:25:12.126Z,6.67
2023-11-23T22:27:24.239Z,6.75
2023-11-23T22:29:32.368Z,6.69
2023-11-23T22:31:42.258Z,6.73
2023-11-23T22:33:51.413Z,6.70
2023-11-23T22:36:00.606Z,6.76
2023-11-23T22:38:09.513Z,6.75
2023-11-23T22:40:18.670Z,6.77
2023-11-23T22:42:27.737Z,6.77
2023-11-23T22:44:36.281Z,6.73
2023-11-23T22:46:45.533Z,6.77
2023-11-23T22:48:54.020Z,6.67
2023-11-23T22:51:02.214Z,6.82
2023-11-23T22:53:12.890Z,6.77
2023-11-23T22:55:21.773Z,6.74
2023-11-23T22:57:31.635Z,6.73
2023-11-23T22:59:39.758Z,6.65
2023-11-23T23:01:49.217Z,6.74
2023-11-23T23:03:57.544Z,6.74
2023-11-23T23:06:07.217Z,6.73
2023-11-23T23:08:17.929Z,6.66
2023-11-23T23:10:26.389Z,6.76
2023-11-23T23:12:34.356Z,6.75
2023-11-23T23:14:42.302Z,6.75
2023-11-23T23:16:50.532Z,6.67
2023-11-23T23:18:58.826Z,6.78
2023-11-23T23:21:07.138Z,6.80
2023-11-23T23:23:20.059Z,6.93
2023-11-23T23:25:28.235Z,6.82
2023-11-23T23:27:36.284Z,6.95
2023-11-23T23:29:44.681Z,6.92
2023-11-23T23:31:55.641Z,6.93
2023-11-23T23:34:03.714Z,6.87
2023-11-23T23:36:13.012Z,6.98
2023-11-23T23:38:21.437Z,6.83
2023-11-23T23:40:30.023Z,6.95
2023-11-23T23:42:38.196Z,6.87
2023-11-23T23:44:46.777Z,7.03
2023-11-23T23:46:57.145Z,6.99
2023-11-23T23:49:05.900Z,7.05
2023-11-23T23:51:14.258Z,6.92
2023-11-23T23:53:25.074Z,6.94
2023-11-23T23:55:33.228Z,6.88
2023-11-23T23:57:41.232Z,6.89
2023-11-23T23:59:51.032Z,6.82
